sensor_id;sensor_type;location;lat;lon;timestamp;P1;durP1;ratioP1;P2;durP2;ratioP2
13374;SDS011;6756;51.354;15.754;2023-05-07T00:02:12;18.90;;;15.40;;
13374;SDS011;6756;51.354;15.754;2023-05-07T00:06:13;17.50;;;14.07;;
13374;SDS011;6756;51.354;15.754;2023-05-07T00:10:15;20.17;;;14.00;;
13374;SDS011;6756;51.354;15.754;2023-05-07T00:14:15;19.27;;;14.73;;
13374;SDS011;6756;51.354;15.754;2023-05-07T00:18:16;17.07;;;14.70;;
13374;SDS011;6756;51.354;15.754;2023-05-07T00:22:21;16.30;;;14.20;;
13374;SDS011;6756;51.354;15.754;2023-05-07T00:26:21;17.10;;;13.90;;
13374;SDS011;6756;51.354;15.754;2023-05-07T00:30:22;15.50;;;13.17;;
13374;SDS011;6756;51.354;15.754;2023-05-07T00:34:23;16.33;;;12.90;;
13374;SDS011;6756;51.354;15.754;2023-05-07T00:38:24;17.27;;;13.13;;
13374;SDS011;6756;51.354;15.754;2023-05-07T00:42:25;15.20;;;12.10;;
13374;SDS011;6756;51.354;15.754;2023-05-07T00:46:26;21.23;;;14.77;;
13374;SDS011;6756;51.354;15.754;2023-05-07T00:50:27;16.13;;;12.27;;
13374;SDS011;6756;51.354;15.754;2023-05-07T00:54:29;14.40;;;12.90;;
13374;SDS011;6756;51.354;15.754;2023-05-07T00:58:30;14.20;;;12.27;;
13374;SDS011;6756;51.354;15.754;2023-05-07T01:02:30;15.87;;;12.70;;
13374;SDS011;6756;51.354;15.754;2023-05-07T01:06:32;17.37;;;13.73;;
13374;SDS011;6756;51.354;15.754;2023-05-07T01:10:33;15.07;;;11.70;;
13374;SDS011;6756;51.354;15.754;2023-05-07T01:14:34;15.97;;;12.70;;
13374;SDS011;6756;51.354;15.754;2023-05-07T01:18:36;16.83;;;12.53;;
13374;SDS011;6756;51.354;15.754;2023-05-07T01:22:37;14.83;;;13.07;;
13374;SDS011;6756;51.354;15.754;2023-05-07T01:26:43;17.13;;;13.67;;
13374;SDS011;6756;51.354;15.754;2023-05-07T01:30:46;17.67;;;13.20;;
13374;SDS011;6756;51.354;15.754;2023-05-07T01:34:49;18.93;;;13.37;;
13374;SDS011;6756;51.354;15.754;2023-05-07T01:38:53;16.70;;;12.97;;
13374;SDS011;6756;51.354;15.754;2023-05-07T01:42:54;16.10;;;13.57;;
13374;SDS011;6756;51.354;15.754;2023-05-07T01:46:55;16.83;;;13.30;;
13374;SDS011;6756;51.354;15.754;2023-05-07T01:50:57;17.93;;;13.90;;
13374;SDS011;6756;51.354;15.754;2023-05-07T01:54:59;17.50;;;14.90;;
13374;SDS011;6756;51.354;15.754;2023-05-07T01:59:00;18.07;;;14.43;;
13374;SDS011;6756;51.354;15.754;2023-05-07T02:03:02;19.10;;;14.37;;
13374;SDS011;6756;51.354;15.754;2023-05-07T02:07:03;18.70;;;13.13;;
13374;SDS011;6756;51.354;15.754;2023-05-07T02:11:04;18.43;;;12.83;;
13374;SDS011;6756;51.354;15.754;2023-05-07T02:15:05;16.80;;;14.37;;
13374;SDS011;6756;51.354;15.754;2023-05-07T02:19:06;18.10;;;14.67;;
13374;SDS011;6756;51.354;15.754;2023-05-07T02:23:07;17.43;;;14.93;;
13374;SDS011;6756;51.354;15.754;2023-05-07T02:27:08;22.83;;;15.13;;
13374;SDS011;6756;51.354;15.754;2023-05-07T02:31:12;17.13;;;14.37;;
13374;SDS011;6756;51.354;15.754;2023-05-07T02:35:13;19.87;;;14.97;;
13374;SDS011;6756;51.354;15.754;2023-05-07T02:39:14;20.80;;;15.97;;
13374;SDS011;6756;51.354;15.754;2023-05-07T02:43:15;18.70;;;14.70;;
13374;SDS011;6756;51.354;15.754;2023-05-07T02:47:16;18.50;;;15.00;;
13374;SDS011;6756;51.354;15.754;2023-05-07T02:51:21;18.10;;;15.37;;
13374;SDS011;6756;51.354;15.754;2023-05-07T02:55:23;19.37;;;15.57;;
13374;SDS011;6756;51.354;15.754;2023-05-07T02:59:24;20.57;;;15.43;;
13374;SDS011;6756;51.354;15.754;2023-05-07T03:03:28;22.37;;;15.30;;
13374;SDS011;6756;51.354;15.754;2023-05-07T03:07:28;20.37;;;15.97;;
13374;SDS011;6756;51.354;15.754;2023-05-07T03:11:29;20.47;;;15.57;;
13374;SDS011;6756;51.354;15.754;2023-05-07T03:15:30;20.57;;;16.07;;
13374;SDS011;6756;51.354;15.754;2023-05-07T03:19:32;20.37;;;15.43;;
13374;SDS011;6756;51.354;15.754;2023-05-07T03:23:32;19.87;;;15.50;;
13374;SDS011;6756;51.354;15.754;2023-05-07T03:27:33;21.90;;;17.50;;
13374;SDS011;6756;51.354;15.754;2023-05-07T03:31:34;22.47;;;17.40;;
13374;SDS011;6756;51.354;15.754;2023-05-07T03:35:35;25.57;;;17.97;;
13374;SDS011;6756;51.354;15.754;2023-05-07T03:39:36;18.97;;;15.73;;
13374;SDS011;6756;51.354;15.754;2023-05-07T03:43:37;16.80;;;14.97;;
13374;SDS011;6756;51.354;15.754;2023-05-07T03:47:38;24.67;;;16.37;;
13374;SDS011;6756;51.354;15.754;2023-05-07T03:51:39;21.07;;;15.43;;
13374;SDS011;6756;51.354;15.754;2023-05-07T03:55:40;18.63;;;15.63;;
13374;SDS011;6756;51.354;15.754;2023-05-07T03:59:41;18.07;;;15.63;;
13374;SDS011;6756;51.354;15.754;2023-05-07T04:03:42;17.93;;;15.97;;
13374;SDS011;6756;51.354;15.754;2023-05-07T04:07:43;18.90;;;15.10;;
13374;SDS011;6756;51.354;15.754;2023-05-07T04:11:44;20.83;;;16.63;;
13374;SDS011;6756;51.354;15.754;2023-05-07T04:15:45;21.10;;;15.30;;
13374;SDS011;6756;51.354;15.754;2023-05-07T04:19:46;42.20;;;25.77;;
13374;SDS011;6756;51.354;15.754;2023-05-07T04:23:47;36.43;;;22.17;;
13374;SDS011;6756;51.354;15.754;2023-05-07T04:27:49;21.00;;;16.77;;
13374;SDS011;6756;51.354;15.754;2023-05-07T04:31:50;18.17;;;14.53;;
13374;SDS011;6756;51.354;15.754;2023-05-07T04:35:51;17.70;;;15.30;;
13374;SDS011;6756;51.354;15.754;2023-05-07T04:39:52;20.70;;;15.03;;
13374;SDS011;6756;51.354;15.754;2023-05-07T04:43:53;18.60;;;15.33;;
13374;SDS011;6756;51.354;15.754;2023-05-07T04:47:55;17.40;;;13.70;;
13374;SDS011;6756;51.354;15.754;2023-05-07T04:51:56;20.27;;;14.77;;
13374;SDS011;6756;51.354;15.754;2023-05-07T04:55:57;20.20;;;15.13;;
13374;SDS011;6756;51.354;15.754;2023-05-07T04:59:58;15.50;;;13.20;;
13374;SDS011;6756;51.354;15.754;2023-05-07T05:03:59;19.20;;;14.17;;
13374;SDS011;6756;51.354;15.754;2023-05-07T05:08:00;17.97;;;14.80;;
13374;SDS011;6756;51.354;15.754;2023-05-07T05:12:01;16.77;;;13.83;;
13374;SDS011;6756;51.354;15.754;2023-05-07T05:16:03;18.57;;;14.90;;
13374;SDS011;6756;51.354;15.754;2023-05-07T05:20:04;20.23;;;15.40;;
13374;SDS011;6756;51.354;15.754;2023-05-07T05:24:06;15.83;;;13.93;;
13374;SDS011;6756;51.354;15.754;2023-05-07T05:28:07;16.43;;;14.00;;
13374;SDS011;6756;51.354;15.754;2023-05-07T05:32:08;16.77;;;13.10;;
13374;SDS011;6756;51.354;15.754;2023-05-07T05:36:10;16.67;;;13.77;;
13374;SDS011;6756;51.354;15.754;2023-05-07T05:40:12;15.67;;;12.10;;
13374;SDS011;6756;51.354;15.754;2023-05-07T05:44:13;13.93;;;11.33;;
13374;SDS011;6756;51.354;15.754;2023-05-07T05:48:14;15.93;;;12.43;;
13374;SDS011;6756;51.354;15.754;2023-05-07T05:52:15;16.40;;;11.53;;
13374;SDS011;6756;51.354;15.754;2023-05-07T05:56:17;13.17;;;10.03;;
13374;SDS011;6756;51.354;15.754;2023-05-07T06:00:19;10.77;;;8.97;;
13374;SDS011;6756;51.354;15.754;2023-05-07T06:04:22;9.83;;;8.40;;
13374;SDS011;6756;51.354;15.754;2023-05-07T06:08:23;12.83;;;10.07;;
13374;SDS011;6756;51.354;15.754;2023-05-07T06:12:24;8.43;;;7.27;;
13374;SDS011;6756;51.354;15.754;2023-05-07T06:16:25;7.50;;;6.80;;
13374;SDS011;6756;51.354;15.754;2023-05-07T06:20:26;8.23;;;7.43;;
13374;SDS011;6756;51.354;15.754;2023-05-07T06:24:36;6.73;;;6.03;;
13374;SDS011;6756;51.354;15.754;2023-05-07T06:28:40;8.27;;;6.33;;
13374;SDS011;6756;51.354;15.754;2023-05-07T06:32:41;8.13;;;6.30;;
13374;SDS011;6756;51.354;15.754;2023-05-07T06:36:44;8.40;;;5.93;;
13374;SDS011;6756;51.354;15.754;2023-05-07T06:40:47;8.57;;;6.03;;
13374;SDS011;6756;51.354;15.754;2023-05-07T06:44:49;6.43;;;5.30;;
13374;SDS011;6756;51.354;15.754;2023-05-07T06:48:50;6.23;;;5.63;;
13374;SDS011;6756;51.354;15.754;2023-05-07T06:52:52;6.87;;;6.17;;
13374;SDS011;6756;51.354;15.754;2023-05-07T06:56:53;8.33;;;6.63;;
13374;SDS011;6756;51.354;15.754;2023-05-07T07:00:54;10.30;;;8.37;;
13374;SDS011;6756;51.354;15.754;2023-05-07T07:04:55;8.40;;;6.10;;
13374;SDS011;6756;51.354;15.754;2023-05-07T07:08:56;8.17;;;5.93;;
13374;SDS011;6756;51.354;15.754;2023-05-07T07:12:58;9.17;;;6.43;;
13374;SDS011;6756;51.354;15.754;2023-05-07T07:16:59;6.17;;;5.57;;
13374;SDS011;6756;51.354;15.754;2023-05-07T07:21:00;6.57;;;5.37;;
13374;SDS011;6756;51.354;15.754;2023-05-07T07:25:04;6.30;;;4.77;;
13374;SDS011;6756;51.354;15.754;2023-05-07T07:29:05;7.33;;;5.57;;
13374;SDS011;6756;51.354;15.754;2023-05-07T07:33:07;7.40;;;6.20;;
13374;SDS011;6756;51.354;15.754;2023-05-07T07:37:08;5.70;;;4.50;;
13374;SDS011;6756;51.354;15.754;2023-05-07T07:41:09;5.10;;;4.70;;
13374;SDS011;6756;51.354;15.754;2023-05-07T07:45:12;5.87;;;4.93;;
13374;SDS011;6756;51.354;15.754;2023-05-07T07:49:14;6.13;;;5.23;;
13374;SDS011;6756;51.354;15.754;2023-05-07T07:53:15;11.80;;;7.20;;
13374;SDS011;6756;51.354;15.754;2023-05-07T07:57:16;8.03;;;7.03;;
13374;SDS011;6756;51.354;15.754;2023-05-07T08:01:16;13.97;;;10.43;;
13374;SDS011;6756;51.354;15.754;2023-05-07T08:05:17;9.30;;;8.40;;
13374;SDS011;6756;51.354;15.754;2023-05-07T08:09:18;6.97;;;6.23;;
13374;SDS011;6756;51.354;15.754;2023-05-07T08:13:19;13.27;;;12.07;;
13374;SDS011;6756;51.354;15.754;2023-05-07T08:17:23;34.97;;;22.80;;
13374;SDS011;6756;51.354;15.754;2023-05-07T08:21:24;27.07;;;15.07;;
13374;SDS011;6756;51.354;15.754;2023-05-07T08:25:26;18.73;;;12.93;;
13374;SDS011;6756;51.354;15.754;2023-05-07T08:29:27;10.97;;;8.10;;
13374;SDS011;6756;51.354;15.754;2023-05-07T08:33:28;16.97;;;13.43;;
13374;SDS011;6756;51.354;15.754;2023-05-07T08:37:28;20.47;;;13.43;;
13374;SDS011;6756;51.354;15.754;2023-05-07T08:41:30;12.57;;;9.17;;
13374;SDS011;6756;51.354;15.754;2023-05-07T08:45:34;10.10;;;7.80;;
13374;SDS011;6756;51.354;15.754;2023-05-07T08:49:36;10.43;;;7.83;;
13374;SDS011;6756;51.354;15.754;2023-05-07T08:53:38;7.83;;;6.17;;
13374;SDS011;6756;51.354;15.754;2023-05-07T08:57:41;6.37;;;5.40;;
13374;SDS011;6756;51.354;15.754;2023-05-07T09:01:43;7.73;;;5.83;;
13374;SDS011;6756;51.354;15.754;2023-05-07T09:05:47;7.43;;;6.63;;
13374;SDS011;6756;51.354;15.754;2023-05-07T09:09:48;8.13;;;7.17;;
13374;SDS011;6756;51.354;15.754;2023-05-07T09:13:53;10.77;;;8.50;;
13374;SDS011;6756;51.354;15.754;2023-05-07T09:17:59;8.40;;;7.60;;
13374;SDS011;6756;51.354;15.754;2023-05-07T09:22:02;10.73;;;8.40;;
13374;SDS011;6756;51.354;15.754;2023-05-07T09:26:04;12.90;;;11.23;;
13374;SDS011;6756;51.354;15.754;2023-05-07T09:30:07;8.90;;;7.67;;
13374;SDS011;6756;51.354;15.754;2023-05-07T09:34:09;7.27;;;6.50;;
13374;SDS011;6756;51.354;15.754;2023-05-07T09:38:10;8.50;;;7.10;;
13374;SDS011;6756;51.354;15.754;2023-05-07T09:42:11;11.17;;;8.80;;
13374;SDS011;6756;51.354;15.754;2023-05-07T09:46:15;34.17;;;18.27;;
13374;SDS011;6756;51.354;15.754;2023-05-07T09:50:36;15.63;;;10.30;;
13374;SDS011;6756;51.354;15.754;2023-05-07T09:54:47;15.07;;;9.70;;
13374;SDS011;6756;51.354;15.754;2023-05-07T09:59:00;10.23;;;8.40;;
13374;SDS011;6756;51.354;15.754;2023-05-07T10:03:01;15.03;;;13.50;;
13374;SDS011;6756;51.354;15.754;2023-05-07T10:07:05;39.63;;;17.73;;
13374;SDS011;6756;51.354;15.754;2023-05-07T10:11:10;90.80;;;29.80;;
13374;SDS011;6756;51.354;15.754;2023-05-07T10:15:11;60.13;;;21.80;;
13374;SDS011;6756;51.354;15.754;2023-05-07T10:19:12;33.77;;;13.77;;
13374;SDS011;6756;51.354;15.754;2023-05-07T10:23:14;30.40;;;27.40;;
13374;SDS011;6756;51.354;15.754;2023-05-07T10:27:23;60.30;;;23.70;;
13374;SDS011;6756;51.354;15.754;2023-05-07T10:31:36;50.93;;;20.23;;
13374;SDS011;6756;51.354;15.754;2023-05-07T10:35:58;40.87;;;16.70;;
13374;SDS011;6756;51.354;15.754;2023-05-07T10:40:00;78.77;;;39.77;;
13374;SDS011;6756;51.354;15.754;2023-05-07T10:44:02;26.30;;;13.50;;
13374;SDS011;6756;51.354;15.754;2023-05-07T10:48:13;9.07;;;6.50;;
13374;SDS011;6756;51.354;15.754;2023-05-07T10:52:21;17.87;;;10.57;;
13374;SDS011;6756;51.354;15.754;2023-05-07T10:56:27;19.73;;;10.93;;
13374;SDS011;6756;51.354;15.754;2023-05-07T11:04:29;15.30;;;9.40;;
13374;SDS011;6756;51.354;15.754;2023-05-07T11:12:57;8.80;;;6.60;;
13374;SDS011;6756;51.354;15.754;2023-05-07T11:17:04;11.07;;;7.03;;
13374;SDS011;6756;51.354;15.754;2023-05-07T11:21:07;8.30;;;5.47;;
13374;SDS011;6756;51.354;15.754;2023-05-07T11:25:08;13.33;;;7.73;;
13374;SDS011;6756;51.354;15.754;2023-05-07T11:29:11;12.67;;;7.47;;
13374;SDS011;6756;51.354;15.754;2023-05-07T11:33:13;12.17;;;7.90;;
13374;SDS011;6756;51.354;15.754;2023-05-07T11:37:17;11.70;;;6.80;;
13374;SDS011;6756;51.354;15.754;2023-05-07T11:41:19;6.83;;;5.40;;
13374;SDS011;6756;51.354;15.754;2023-05-07T11:45:24;6.13;;;5.53;;
13374;SDS011;6756;51.354;15.754;2023-05-07T11:49:28;6.13;;;5.50;;
13374;SDS011;6756;51.354;15.754;2023-05-07T11:53:36;6.23;;;5.63;;
13374;SDS011;6756;51.354;15.754;2023-05-07T11:57:44;17.67;;;10.67;;
13374;SDS011;6756;51.354;15.754;2023-05-07T12:01:45;9.10;;;6.90;;
13374;SDS011;6756;51.354;15.754;2023-05-07T12:05:47;15.50;;;11.70;;
13374;SDS011;6756;51.354;15.754;2023-05-07T12:09:49;7.03;;;5.87;;
13374;SDS011;6756;51.354;15.754;2023-05-07T12:13:50;5.37;;;4.70;;
13374;SDS011;6756;51.354;15.754;2023-05-07T12:17:51;11.93;;;7.73;;
13374;SDS011;6756;51.354;15.754;2023-05-07T12:21:53;9.93;;;6.93;;
13374;SDS011;6756;51.354;15.754;2023-05-07T12:25:54;7.63;;;5.97;;
13374;SDS011;6756;51.354;15.754;2023-05-07T12:29:59;7.70;;;5.63;;
13374;SDS011;6756;51.354;15.754;2023-05-07T12:34:00;11.83;;;8.37;;
13374;SDS011;6756;51.354;15.754;2023-05-07T12:38:08;9.93;;;8.10;;
13374;SDS011;6756;51.354;15.754;2023-05-07T12:42:16;10.40;;;7.33;;
13374;SDS011;6756;51.354;15.754;2023-05-07T12:46:23;9.73;;;7.40;;
13374;SDS011;6756;51.354;15.754;2023-05-07T12:50:24;6.63;;;4.60;;
13374;SDS011;6756;51.354;15.754;2023-05-07T12:54:35;7.33;;;5.60;;
13374;SDS011;6756;51.354;15.754;2023-05-07T12:58:38;6.97;;;5.43;;
13374;SDS011;6756;51.354;15.754;2023-05-07T13:02:40;7.83;;;4.90;;
13374;SDS011;6756;51.354;15.754;2023-05-07T13:06:44;6.47;;;5.00;;
13374;SDS011;6756;51.354;15.754;2023-05-07T13:10:45;4.17;;;3.77;;
13374;SDS011;6756;51.354;15.754;2023-05-07T13:14:49;9.70;;;5.97;;
13374;SDS011;6756;51.354;15.754;2023-05-07T13:18:50;9.37;;;5.87;;
13374;SDS011;6756;51.354;15.754;2023-05-07T13:22:51;5.57;;;3.90;;
13374;SDS011;6756;51.354;15.754;2023-05-07T13:26:52;4.80;;;4.03;;
13374;SDS011;6756;51.354;15.754;2023-05-07T13:30:53;9.03;;;4.97;;
13374;SDS011;6756;51.354;15.754;2023-05-07T13:34:54;7.77;;;5.83;;
13374;SDS011;6756;51.354;15.754;2023-05-07T13:38:59;8.60;;;6.33;;
13374;SDS011;6756;51.354;15.754;2023-05-07T13:43:00;15.63;;;11.43;;
13374;SDS011;6756;51.354;15.754;2023-05-07T13:47:04;18.03;;;11.33;;
13374;SDS011;6756;51.354;15.754;2023-05-07T13:51:06;8.43;;;6.27;;
13374;SDS011;6756;51.354;15.754;2023-05-07T13:55:07;14.97;;;9.47;;
13374;SDS011;6756;51.354;15.754;2023-05-07T13:59:08;13.90;;;7.67;;
13374;SDS011;6756;51.354;15.754;2023-05-07T14:03:14;9.00;;;6.87;;
13374;SDS011;6756;51.354;15.754;2023-05-07T14:07:19;11.10;;;7.63;;
13374;SDS011;6756;51.354;15.754;2023-05-07T14:11:20;6.27;;;4.77;;
13374;SDS011;6756;51.354;15.754;2023-05-07T14:15:21;5.80;;;4.60;;
13374;SDS011;6756;51.354;15.754;2023-05-07T14:19:23;4.80;;;4.00;;
13374;SDS011;6756;51.354;15.754;2023-05-07T14:23:30;9.53;;;7.23;;
13374;SDS011;6756;51.354;15.754;2023-05-07T14:27:34;7.10;;;5.03;;
13374;SDS011;6756;51.354;15.754;2023-05-07T14:31:35;18.73;;;14.10;;
13374;SDS011;6756;51.354;15.754;2023-05-07T14:35:39;6.63;;;5.93;;
13374;SDS011;6756;51.354;15.754;2023-05-07T14:39:40;13.07;;;8.80;;
13374;SDS011;6756;51.354;15.754;2023-05-07T14:43:43;17.53;;;11.73;;
13374;SDS011;6756;51.354;15.754;2023-05-07T14:47:49;13.53;;;8.63;;
13374;SDS011;6756;51.354;15.754;2023-05-07T14:51:52;5.37;;;4.47;;
13374;SDS011;6756;51.354;15.754;2023-05-07T14:55:53;17.20;;;10.90;;
13374;SDS011;6756;51.354;15.754;2023-05-07T14:59:54;35.63;;;28.67;;
13374;SDS011;6756;51.354;15.754;2023-05-07T15:03:55;10.37;;;6.33;;
13374;SDS011;6756;51.354;15.754;2023-05-07T15:07:57;8.03;;;6.77;;
13374;SDS011;6756;51.354;15.754;2023-05-07T15:11:58;6.70;;;4.83;;
13374;SDS011;6756;51.354;15.754;2023-05-07T15:15:59;23.53;;;12.27;;
13374;SDS011;6756;51.354;15.754;2023-05-07T15:20:00;11.10;;;7.90;;
13374;SDS011;6756;51.354;15.754;2023-05-07T15:24:01;8.00;;;5.60;;
13374;SDS011;6756;51.354;15.754;2023-05-07T15:28:02;8.27;;;6.03;;
13374;SDS011;6756;51.354;15.754;2023-05-07T15:32:04;6.63;;;4.33;;
13374;SDS011;6756;51.354;15.754;2023-05-07T15:36:05;4.90;;;4.40;;
13374;SDS011;6756;51.354;15.754;2023-05-07T15:40:06;7.23;;;5.70;;
13374;SDS011;6756;51.354;15.754;2023-05-07T15:44:08;5.70;;;4.17;;
13374;SDS011;6756;51.354;15.754;2023-05-07T15:48:09;5.73;;;4.80;;
13374;SDS011;6756;51.354;15.754;2023-05-07T15:52:11;10.70;;;7.50;;
13374;SDS011;6756;51.354;15.754;2023-05-07T15:56:16;11.63;;;8.23;;
13374;SDS011;6756;51.354;15.754;2023-05-07T16:00:18;10.37;;;7.10;;
13374;SDS011;6756;51.354;15.754;2023-05-07T16:04:19;9.70;;;7.27;;
13374;SDS011;6756;51.354;15.754;2023-05-07T16:08:20;12.73;;;9.73;;
13374;SDS011;6756;51.354;15.754;2023-05-07T16:12:24;15.30;;;8.13;;
13374;SDS011;6756;51.354;15.754;2023-05-07T16:16:26;7.73;;;5.97;;
13374;SDS011;6756;51.354;15.754;2023-05-07T16:20:29;21.47;;;10.30;;
13374;SDS011;6756;51.354;15.754;2023-05-07T16:24:30;13.73;;;7.27;;
13374;SDS011;6756;51.354;15.754;2023-05-07T16:28:31;15.40;;;9.40;;
13374;SDS011;6756;51.354;15.754;2023-05-07T16:32:32;26.63;;;14.27;;
13374;SDS011;6756;51.354;15.754;2023-05-07T16:36:34;44.40;;;17.53;;
13374;SDS011;6756;51.354;15.754;2023-05-07T16:40:38;17.87;;;10.33;;
13374;SDS011;6756;51.354;15.754;2023-05-07T16:44:39;11.43;;;8.00;;
13374;SDS011;6756;51.354;15.754;2023-05-07T16:48:41;11.47;;;7.93;;
13374;SDS011;6756;51.354;15.754;2023-05-07T16:52:42;11.00;;;7.47;;
13374;SDS011;6756;51.354;15.754;2023-05-07T16:56:43;9.83;;;5.77;;
13374;SDS011;6756;51.354;15.754;2023-05-07T17:00:45;9.40;;;6.20;;
13374;SDS011;6756;51.354;15.754;2023-05-07T17:04:46;11.83;;;7.03;;
13374;SDS011;6756;51.354;15.754;2023-05-07T17:08:47;12.73;;;8.23;;
13374;SDS011;6756;51.354;15.754;2023-05-07T17:12:50;7.37;;;5.27;;
13374;SDS011;6756;51.354;15.754;2023-05-07T17:16:51;5.90;;;5.23;;
13374;SDS011;6756;51.354;15.754;2023-05-07T17:20:52;6.53;;;5.10;;
13374;SDS011;6756;51.354;15.754;2023-05-07T17:24:54;7.00;;;5.70;;
13374;SDS011;6756;51.354;15.754;2023-05-07T17:28:55;4.87;;;4.33;;
13374;SDS011;6756;51.354;15.754;2023-05-07T17:32:56;4.17;;;3.77;;
13374;SDS011;6756;51.354;15.754;2023-05-07T17:36:57;7.43;;;5.07;;
13374;SDS011;6756;51.354;15.754;2023-05-07T17:40:58;7.83;;;6.27;;
13374;SDS011;6756;51.354;15.754;2023-05-07T17:44:59;5.37;;;4.40;;
13374;SDS011;6756;51.354;15.754;2023-05-07T17:49:00;6.80;;;5.20;;
13374;SDS011;6756;51.354;15.754;2023-05-07T17:53:01;7.97;;;5.40;;
13374;SDS011;6756;51.354;15.754;2023-05-07T17:57:02;6.27;;;5.00;;
13374;SDS011;6756;51.354;15.754;2023-05-07T18:01:03;5.50;;;4.77;;
13374;SDS011;6756;51.354;15.754;2023-05-07T18:05:05;4.90;;;4.40;;
13374;SDS011;6756;51.354;15.754;2023-05-07T18:09:07;4.57;;;3.40;;
13374;SDS011;6756;51.354;15.754;2023-05-07T18:13:11;9.80;;;5.57;;
13374;SDS011;6756;51.354;15.754;2023-05-07T18:17:12;9.93;;;6.60;;
13374;SDS011;6756;51.354;15.754;2023-05-07T18:21:14;6.40;;;4.73;;
13374;SDS011;6756;51.354;15.754;2023-05-07T18:25:17;9.10;;;5.53;;
13374;SDS011;6756;51.354;15.754;2023-05-07T18:29:19;7.27;;;5.03;;
13374;SDS011;6756;51.354;15.754;2023-05-07T18:33:20;8.33;;;6.33;;
13374;SDS011;6756;51.354;15.754;2023-05-07T18:37:21;6.13;;;4.83;;
13374;SDS011;6756;51.354;15.754;2023-05-07T18:41:22;4.90;;;4.37;;
13374;SDS011;6756;51.354;15.754;2023-05-07T18:45:23;5.37;;;4.53;;
13374;SDS011;6756;51.354;15.754;2023-05-07T18:49:27;5.20;;;4.10;;
13374;SDS011;6756;51.354;15.754;2023-05-07T18:53:29;8.10;;;5.90;;
13374;SDS011;6756;51.354;15.754;2023-05-07T18:57:30;12.37;;;7.97;;
13374;SDS011;6756;51.354;15.754;2023-05-07T19:01:30;9.57;;;6.33;;
13374;SDS011;6756;51.354;15.754;2023-05-07T19:05:32;7.70;;;5.33;;
13374;SDS011;6756;51.354;15.754;2023-05-07T19:09:33;6.37;;;4.43;;
13374;SDS011;6756;51.354;15.754;2023-05-07T19:13:34;6.20;;;4.90;;
13374;SDS011;6756;51.354;15.754;2023-05-07T19:17:35;5.43;;;4.20;;
13374;SDS011;6756;51.354;15.754;2023-05-07T19:21:39;8.83;;;6.17;;
13374;SDS011;6756;51.354;15.754;2023-05-07T19:25:40;10.10;;;6.40;;
13374;SDS011;6756;51.354;15.754;2023-05-07T19:29:44;11.83;;;7.37;;
13374;SDS011;6756;51.354;15.754;2023-05-07T19:33:45;14.63;;;7.63;;
13374;SDS011;6756;51.354;15.754;2023-05-07T19:37:47;11.83;;;7.40;;
13374;SDS011;6756;51.354;15.754;2023-05-07T19:41:49;12.30;;;7.50;;
13374;SDS011;6756;51.354;15.754;2023-05-07T19:45:53;10.30;;;6.40;;
13374;SDS011;6756;51.354;15.754;2023-05-07T19:49:54;11.57;;;6.70;;
13374;SDS011;6756;51.354;15.754;2023-05-07T19:53:55;5.30;;;3.90;;
13374;SDS011;6756;51.354;15.754;2023-05-07T19:57:57;4.67;;;3.93;;
13374;SDS011;6756;51.354;15.754;2023-05-07T20:01:58;4.30;;;3.23;;
13374;SDS011;6756;51.354;15.754;2023-05-07T20:05:59;3.37;;;3.07;;
13374;SDS011;6756;51.354;15.754;2023-05-07T20:10:02;10.50;;;6.77;;
13374;SDS011;6756;51.354;15.754;2023-05-07T20:14:03;10.40;;;6.30;;
13374;SDS011;6756;51.354;15.754;2023-05-07T20:18:05;10.30;;;5.27;;
13374;SDS011;6756;51.354;15.754;2023-05-07T20:22:06;6.90;;;3.83;;
13374;SDS011;6756;51.354;15.754;2023-05-07T20:26:07;5.90;;;4.23;;
13374;SDS011;6756;51.354;15.754;2023-05-07T20:30:08;6.17;;;4.60;;
13374;SDS011;6756;51.354;15.754;2023-05-07T20:34:09;10.17;;;5.13;;
13374;SDS011;6756;51.354;15.754;2023-05-07T20:38:10;9.33;;;5.57;;
13374;SDS011;6756;51.354;15.754;2023-05-07T20:42:12;4.50;;;3.97;;
13374;SDS011;6756;51.354;15.754;2023-05-07T20:46:13;5.20;;;3.90;;
13374;SDS011;6756;51.354;15.754;2023-05-07T20:50:18;3.37;;;3.00;;
13374;SDS011;6756;51.354;15.754;2023-05-07T20:54:21;4.97;;;3.87;;
13374;SDS011;6756;51.354;15.754;2023-05-07T20:58:22;4.80;;;3.50;;
13374;SDS011;6756;51.354;15.754;2023-05-07T21:02:24;4.33;;;3.53;;
13374;SDS011;6756;51.354;15.754;2023-05-07T21:06:25;4.43;;;3.50;;
13374;SDS011;6756;51.354;15.754;2023-05-07T21:10:26;4.83;;;3.93;;
13374;SDS011;6756;51.354;15.754;2023-05-07T21:14:27;6.57;;;3.73;;
13374;SDS011;6756;51.354;15.754;2023-05-07T21:18:28;4.43;;;3.97;;
13374;SDS011;6756;51.354;15.754;2023-05-07T21:22:29;5.43;;;4.37;;
13374;SDS011;6756;51.354;15.754;2023-05-07T21:26:33;5.63;;;3.90;;
13374;SDS011;6756;51.354;15.754;2023-05-07T21:30:35;5.53;;;4.30;;
13374;SDS011;6756;51.354;15.754;2023-05-07T21:34:36;5.20;;;4.70;;
13374;SDS011;6756;51.354;15.754;2023-05-07T21:38:37;5.33;;;4.53;;
13374;SDS011;6756;51.354;15.754;2023-05-07T21:42:39;5.10;;;4.57;;
13374;SDS011;6756;51.354;15.754;2023-05-07T21:46:40;5.67;;;4.90;;
13374;SDS011;6756;51.354;15.754;2023-05-07T21:50:41;5.83;;;4.93;;
13374;SDS011;6756;51.354;15.754;2023-05-07T21:54:44;6.87;;;5.00;;
13374;SDS011;6756;51.354;15.754;2023-05-07T21:58:45;5.37;;;4.70;;
13374;SDS011;6756;51.354;15.754;2023-05-07T22:02:50;5.53;;;5.03;;
13374;SDS011;6756;51.354;15.754;2023-05-07T22:06:51;6.00;;;4.83;;
13374;SDS011;6756;51.354;15.754;2023-05-07T22:10:56;5.80;;;5.20;;
13374;SDS011;6756;51.354;15.754;2023-05-07T22:14:57;6.03;;;5.20;;
13374;SDS011;6756;51.354;15.754;2023-05-07T22:18:58;5.60;;;5.10;;
13374;SDS011;6756;51.354;15.754;2023-05-07T22:22:59;5.40;;;4.90;;
13374;SDS011;6756;51.354;15.754;2023-05-07T22:27:00;6.20;;;4.80;;
13374;SDS011;6756;51.354;15.754;2023-05-07T22:31:00;5.97;;;5.37;;
13374;SDS011;6756;51.354;15.754;2023-05-07T22:35:02;5.40;;;4.87;;
13374;SDS011;6756;51.354;15.754;2023-05-07T22:39:03;6.40;;;4.77;;
13374;SDS011;6756;51.354;15.754;2023-05-07T22:43:06;7.03;;;5.57;;
13374;SDS011;6756;51.354;15.754;2023-05-07T22:47:10;7.13;;;6.03;;
13374;SDS011;6756;51.354;15.754;2023-05-07T22:51:11;6.33;;;5.70;;
13374;SDS011;6756;51.354;15.754;2023-05-07T22:55:13;7.97;;;5.93;;
13374;SDS011;6756;51.354;15.754;2023-05-07T22:59:14;7.43;;;5.80;;
13374;SDS011;6756;51.354;15.754;2023-05-07T23:03:15;6.47;;;5.83;;
13374;SDS011;6756;51.354;15.754;2023-05-07T23:07:16;8.30;;;5.90;;
13374;SDS011;6756;51.354;15.754;2023-05-07T23:11:16;8.67;;;6.00;;
13374;SDS011;6756;51.354;15.754;2023-05-07T23:15:17;7.00;;;5.60;;
13374;SDS011;6756;51.354;15.754;2023-05-07T23:19:18;6.70;;;5.53;;
13374;SDS011;6756;51.354;15.754;2023-05-07T23:23:19;6.30;;;5.70;;
13374;SDS011;6756;51.354;15.754;2023-05-07T23:27:20;6.33;;;5.37;;
13374;SDS011;6756;51.354;15.754;2023-05-07T23:31:21;7.20;;;6.03;;
13374;SDS011;6756;51.354;15.754;2023-05-07T23:35:22;7.20;;;6.37;;
13374;SDS011;6756;51.354;15.754;2023-05-07T23:39:23;7.97;;;6.73;;
13374;SDS011;6756;51.354;15.754;2023-05-07T23:43:24;6.37;;;5.37;;
13374;SDS011;6756;51.354;15.754;2023-05-07T23:47:25;6.13;;;5.37;;
13374;SDS011;6756;51.354;15.754;2023-05-07T23:51:26;8.00;;;6.27;;
13374;SDS011;6756;51.354;15.754;2023-05-07T23:55:27;7.57;;;6.27;;
13374;SDS011;6756;51.354;15.754;2023-05-07T23:59:28;12.33;;;8.20;;
